Time;durP1;ratioP1;P1;durP2;ratioP2;P2;SDS_P1;SDS_P2;PMS_P1;PMS_P2;Temp;Humidity;BMP_temperature;BMP_pressure;BME280_temperature;BME280_humidity;BME280_pressure;Samples;Min_cycle;Max_cycle;Signal;HPM_P1;HPM_P2
2022/06/21 00:00:15;;;;;;;7.32;4.13;;;;;;;;;;5114612;28;20035;-37
2022/06/21 00:02:41;;;;;;;7.22;4.32;;;;;;;;;;5115075;28;20035;-51
2022/06/21 00:05:23;;;;;;;8.05;4.30;;;;;;;;;;5114821;28;20022;-47
2022/06/21 00:07:49;;;;;;;8.88;4.40;;;;;;;;;;5114575;28;20654;-48
2022/06/21 00:10:18;;;;;;;8.70;4.88;;;;;;;;;;5114966;28;20127;-51
2022/06/21 00:12:43;;;;;;;6.97;4.10;;;;;;;;;;5115097;28;20023;-41
2022/06/21 00:15:10;;;;;;;9.80;4.70;;;;;;;;;;5114335;28;20407;-52
2022/06/21 00:17:35;;;;;;;12.63;4.57;;;;;;;;;;5114543;27;20430;-54
2022/06/21 00:20:01;;;;;;;5.13;4.60;;;;;;;;;;5114800;28;20110;-37
2022/06/21 00:22:26;;;;;;;8.05;4.57;;;;;;;;;;5114310;28;20023;-37
2022/06/21 00:24:52;;;;;;;9.32;4.45;;;;;;;;;;5114688;28;20066;-43
2022/06/21 00:27:20;;;;;;;8.20;4.53;;;;;;;;;;5114438;28;20475;-37
2022/06/21 00:29:46;;;;;;;10.48;4.80;;;;;;;;;;5114643;28;20026;-42
2022/06/21 00:32:16;;;;;;;8.80;5.45;;;;;;;;;;5114099;28;20028;-41
2022/06/21 00:34:42;;;;;;;8.73;4.47;;;;;;;;;;5114378;28;20662;-49
2022/06/21 00:37:17;;;;;;;5.28;4.40;;;;;;;;;;5114031;28;20558;-36
2022/06/21 00:39:43;;;;;;;8.30;4.50;;;;;;;;;;5114433;28;20028;-56
2022/06/21 00:42:22;;;;;;;6.38;4.57;;;;;;;;;;5113967;28;20130;-44
2022/06/21 00:45:01;;;;;;;10.53;4.90;;;;;;;;;;5114151;28;20082;-37
2022/06/21 00:47:44;;;;;;;7.40;4.82;;;;;;;;;;5114025;28;20027;-44
2022/06/21 00:50:21;;;;;;;8.60;4.30;;;;;;;;;;5113484;28;20024;-62
2022/06/21 00:53:02;;;;;;;8.07;4.35;;;;;;;;;;5114114;28;20088;-44
2022/06/21 00:56:13;;;;;;;9.75;4.70;;;;;;;;;;5113690;28;20387;-47
2022/06/21 00:58:38;;;;;;;5.57;4.35;;;;;;;;;;5079028;28;20449;-38
2022/06/21 01:01:23;;;;;;;14.90;4.63;;;;;;;;;;5114183;28;20049;-37
2022/06/21 01:03:54;;;;;;;9.35;4.97;;;;;;;;;;5113990;28;20024;-61
2022/06/21 01:06:45;;;;;;;6.20;4.18;;;;;;;;;;5113826;28;20026;-37
2022/06/21 01:09:14;;;;;;;13.60;4.72;;;;;;;;;;5106179;28;20107;-59
2022/06/21 01:11:44;;;;;;;9.27;4.35;;;;;;;;;;5113178;28;20031;-37
2022/06/21 01:14:11;;;;;;;11.23;4.45;;;;;;;;;;5113559;28;20173;-49
2022/06/21 01:16:39;;;;;;;6.45;4.45;;;;;;;;;;5113074;28;20499;-50
2022/06/21 01:19:11;;;;;;;8.35;4.35;;;;;;;;;;5113749;28;20028;-43
2022/06/21 01:21:40;;;;;;;7.78;4.32;;;;;;;;;;5114348;28;20066;-51
2022/06/21 01:24:20;;;;;;;9.13;4.22;;;;;;;;;;5115194;28;20059;-43
2022/06/21 01:26:52;;;;;;;10.70;4.20;;;;;;;;;;5115117;28;20449;-58
2022/06/21 01:29:21;;;;;;;6.50;3.78;;;;;;;;;;5115091;28;20102;-56
2022/06/21 01:31:47;;;;;;;8.23;3.78;;;;;;;;;;5114929;28;20198;-54
2022/06/21 01:34:23;;;;;;;7.25;3.95;;;;;;;;;;5114930;28;20023;-60
2022/06/21 01:37:00;;;;;;;7.65;4.22;;;;;;;;;;5114810;27;20066;-57
2022/06/21 01:39:32;;;;;;;6.72;4.18;;;;;;;;;;5113856;28;20024;-41
2022/06/21 01:42:05;;;;;;;10.23;4.07;;;;;;;;;;5114743;28;20031;-59
2022/06/21 01:44:35;;;;;;;8.13;4.13;;;;;;;;;;5114781;28;20019;-45
2022/06/21 01:47:04;;;;;;;8.32;3.90;;;;;;;;;;5114473;28;20550;-58
2022/06/21 01:49:33;;;;;;;8.23;3.63;;;;;;;;;;5114080;28;20031;-51
2022/06/21 01:52:06;;;;;;;4.80;3.57;;;;;;;;;;5114440;28;20073;-57
2022/06/21 01:54:38;;;;;;;13.85;3.72;;;;;;;;;;5114223;28;20474;-55
2022/06/21 01:57:06;;;;;;;12.93;3.97;;;;;;;;;;5114568;28;20042;-47
2022/06/21 01:59:37;;;;;;;10.07;3.78;;;;;;;;;;5113664;28;20024;-50
2022/06/21 02:02:08;;;;;;;7.45;5.18;;;;;;;;;;5114415;28;20020;-43
2022/06/21 02:04:45;;;;;;;13.75;4.40;;;;;;;;;;5114458;28;20023;-56
2022/06/21 02:07:18;;;;;;;8.82;3.65;;;;;;;;;;5114148;28;20103;-44
2022/06/21 02:09:52;;;;;;;6.82;3.90;;;;;;;;;;5113100;28;20148;-46
2022/06/21 02:12:17;;;;;;;6.82;3.75;;;;;;;;;;5114052;28;20028;-55
2022/06/21 02:14:47;;;;;;;9.00;3.92;;;;;;;;;;5114063;28;20026;-49
2022/06/21 02:17:19;;;;;;;7.18;3.40;;;;;;;;;;5112482;28;20047;-49
2022/06/21 02:19:49;;;;;;;9.13;3.67;;;;;;;;;;5113911;28;20036;-52
2022/06/21 02:22:24;;;;;;;4.53;3.50;;;;;;;;;;5112953;28;20011;-43
2022/06/21 02:24:51;;;;;;;10.52;3.83;;;;;;;;;;5114129;28;20074;-54
2022/06/21 02:27:19;;;;;;;6.85;3.70;;;;;;;;;;5113792;28;20023;-55
2022/06/21 02:29:50;;;;;;;12.32;3.75;;;;;;;;;;5113728;28;20023;-50
2022/06/21 02:32:23;;;;;;;9.10;3.80;;;;;;;;;;5114046;28;20020;-53
2022/06/21 02:34:54;;;;;;;5.03;3.63;;;;;;;;;;5113881;28;20022;-42
2022/06/21 02:37:20;;;;;;;13.02;4.15;;;;;;;;;;5113669;28;20068;-43
2022/06/21 02:39:46;;;;;;;12.13;3.70;;;;;;;;;;5113896;28;20023;-44
2022/06/21 02:42:17;;;;;;;7.93;3.40;;;;;;;;;;5113718;28;20100;-47
2022/06/21 02:44:56;;;;;;;7.75;3.20;;;;;;;;;;5113394;28;20494;-41
2022/06/21 02:47:26;;;;;;;11.85;3.13;;;;;;;;;;5113734;28;20035;-44
2022/06/21 02:50:01;;;;;;;4.70;2.70;;;;;;;;;;5113649;28;20028;-51
2022/06/21 02:52:31;;;;;;;9.93;2.70;;;;;;;;;;5113289;28;20024;-50
2022/06/21 02:55:03;;;;;;;4.47;2.70;;;;;;;;;;5113569;28;20035;-46
2022/06/21 02:57:42;;;;;;;10.48;3.03;;;;;;;;;;5113243;28;20109;-48
2022/06/21 03:00:13;;;;;;;13.85;2.60;;;;;;;;;;5113554;28;20042;-57
2022/06/21 03:02:39;;;;;;;12.02;2.90;;;;;;;;;;5112249;28;20028;-56
2022/06/21 03:05:11;;;;;;;10.40;3.00;;;;;;;;;;5113134;27;20019;-56
2022/06/21 03:07:40;;;;;;;10.27;2.72;;;;;;;;;;5113383;28;20114;-59
2022/06/21 03:10:18;;;;;;;8.38;3.00;;;;;;;;;;5113095;28;20028;-56
2022/06/21 03:12:44;;;;;;;12.35;2.80;;;;;;;;;;5113097;28;20035;-60
2022/06/21 03:15:11;;;;;;;10.48;2.92;;;;;;;;;;5112980;28;20024;-37
2022/06/21 03:17:42;;;;;;;9.02;2.85;;;;;;;;;;5112997;28;20053;-37
2022/06/21 03:20:16;;;;;;;9.90;2.60;;;;;;;;;;5112224;28;20102;-58
2022/06/21 03:22:43;;;;;;;5.78;2.90;;;;;;;;;;5113014;28;20035;-37
2022/06/21 03:25:25;;;;;;;8.13;2.90;;;;;;;;;;5111662;28;20034;-37
2022/06/21 03:27:58;;;;;;;5.75;2.53;;;;;;;;;;5113002;28;20024;-38
2022/06/21 03:30:31;;;;;;;14.25;3.55;;;;;;;;;;5113246;28;20564;-44
2022/06/21 03:32:57;;;;;;;13.60;3.00;;;;;;;;;;5113342;28;20066;-58
2022/06/21 03:35:25;;;;;;;5.32;2.55;;;;;;;;;;5117311;28;20120;-44
2022/06/21 03:37:50;;;;;;;7.68;2.83;;;;;;;;;;5117027;28;20467;-53
2022/06/21 03:43:14;;;;;;;2.97;2.25;;;;;;;;;;5117299;28;20030;-52
2022/06/21 03:45:42;;;;;;;4.35;2.33;;;;;;;;;;5117264;28;20020;-54
2022/06/21 03:48:26;;;;;;;4.32;2.40;;;;;;;;;;5116867;28;20378;-43
2022/06/21 03:50:59;;;;;;;8.10;2.90;;;;;;;;;;5117141;28;20023;-48
2022/06/21 03:53:35;;;;;;;4.60;2.70;;;;;;;;;;5117155;28;20028;-52
2022/06/21 03:56:08;;;;;;;7.38;2.50;;;;;;;;;;5116944;28;20027;-49
2022/06/21 03:58:56;;;;;;;6.88;2.50;;;;;;;;;;5116748;28;20024;-54
2022/06/21 04:01:31;;;;;;;7.18;2.85;;;;;;;;;;5116609;28;20029;-44
2022/06/21 04:04:15;;;;;;;7.70;2.80;;;;;;;;;;5116895;28;20020;-41
2022/06/21 04:07:03;;;;;;;3.58;2.40;;;;;;;;;;5116845;28;20035;-60
2022/06/21 04:10:01;;;;;;;5.53;2.67;;;;;;;;;;5115993;28;20070;-55
2022/06/21 04:12:35;;;;;;;4.78;2.90;;;;;;;;;;5090693;28;20084;-60
2022/06/21 04:15:10;;;;;;;3.17;2.13;;;;;;;;;;5116566;28;20057;-57
2022/06/21 04:17:57;;;;;;;7.63;2.75;;;;;;;;;;5116148;28;20043;-61
2022/06/21 04:20:41;;;;;;;5.68;2.70;;;;;;;;;;5116716;28;20376;-54
2022/06/21 04:23:20;;;;;;;10.98;2.88;;;;;;;;;;5116477;28;20035;-57
2022/06/21 04:25:54;;;;;;;8.15;3.40;;;;;;;;;;5116471;27;20026;-46
2022/06/21 04:28:26;;;;;;;9.35;3.45;;;;;;;;;;5116179;28;20030;-42
2022/06/21 04:31:20;;;;;;;9.43;2.45;;;;;;;;;;5116397;28;20055;-58
2022/06/21 04:33:59;;;;;;;6.35;3.80;;;;;;;;;;5116280;28;20024;-61
2022/06/21 04:36:32;;;;;;;8.18;3.50;;;;;;;;;;5116205;28;20039;-53
2022/06/21 04:39:14;;;;;;;20.23;3.15;;;;;;;;;;5116124;28;20035;-55
2022/06/21 04:41:48;;;;;;;9.77;4.53;;;;;;;;;;5115832;28;20031;-38
2022/06/21 04:44:39;;;;;;;9.38;3.70;;;;;;;;;;5115571;28;20461;-44
2022/06/21 04:47:11;;;;;;;28.63;4.78;;;;;;;;;;5115587;28;20483;-48
2022/06/21 04:49:42;;;;;;;5.97;2.75;;;;;;;;;;5115724;28;20030;-52
2022/06/21 04:52:12;;;;;;;11.85;3.03;;;;;;;;;;5116007;28;20024;-59
2022/06/21 04:54:39;;;;;;;8.02;3.00;;;;;;;;;;5115866;28;20104;-59
2022/06/21 04:57:10;;;;;;;5.70;2.80;;;;;;;;;;5115486;28;20486;-47
2022/06/21 04:59:44;;;;;;;7.35;2.60;;;;;;;;;;5115461;28;20036;-61
2022/06/21 05:02:27;;;;;;;4.93;2.38;;;;;;;;;;5115787;28;20020;-56
2022/06/21 05:05:12;;;;;;;11.25;2.53;;;;;;;;;;5115408;28;20028;-58
2022/06/21 05:07:45;;;;;;;5.93;2.78;;;;;;;;;;5115341;28;20019;-62
2022/06/21 05:10:25;;;;;;;11.55;3.08;;;;;;;;;;5115412;28;20028;-60
2022/06/21 05:12:53;;;;;;;11.77;3.30;;;;;;;;;;5115851;28;20028;-53
2022/06/21 05:15:32;;;;;;;4.90;2.78;;;;;;;;;;5115404;28;20035;-47
2022/06/21 05:18:02;;;;;;;12.82;3.08;;;;;;;;;;5115097;28;20044;-57
2022/06/21 05:20:34;;;;;;;17.60;4.53;;;;;;;;;;5115372;27;20055;-54
2022/06/21 05:23:01;;;;;;;13.75;4.65;;;;;;;;;;5115125;28;20020;-47
2022/06/21 05:25:40;;;;;;;13.95;3.42;;;;;;;;;;5115021;28;20027;-52
2022/06/21 05:28:33;;;;;;;11.43;4.53;;;;;;;;;;5115345;28;20378;-43
2022/06/21 05:31:20;;;;;;;9.77;3.53;;;;;;;;;;5113685;28;20023;-57
2022/06/21 05:33:49;;;;;;;4.00;3.03;;;;;;;;;;5113024;28;20490;-43
2022/06/21 05:36:20;;;;;;;13.82;3.30;;;;;;;;;;5114249;28;20050;-45
2022/06/21 05:38:52;;;;;;;8.75;3.15;;;;;;;;;;5114298;28;20038;-39
2022/06/21 05:41:30;;;;;;;12.32;2.88;;;;;;;;;;5114574;28;20604;-39
2022/06/21 05:44:03;;;;;;;11.50;3.40;;;;;;;;;;5114801;28;20035;-38
2022/06/21 05:46:32;;;;;;;12.00;3.90;;;;;;;;;;5114719;28;20438;-59
2022/06/21 05:48:59;;;;;;;11.50;3.17;;;;;;;;;;5114708;28;20055;-52
2022/06/21 05:51:32;;;;;;;9.40;2.58;;;;;;;;;;5114532;28;20379;-46
2022/06/21 05:54:08;;;;;;;12.15;2.30;;;;;;;;;;5114293;28;20026;-40
2022/06/21 05:56:35;;;;;;;13.55;3.15;;;;;;;;;;5113291;28;20031;-39
2022/06/21 05:59:04;;;;;;;13.00;3.85;;;;;;;;;;5114342;28;20505;-59
2022/06/21 06:01:42;;;;;;;7.40;4.18;;;;;;;;;;5114316;28;20019;-57
2022/06/21 06:04:15;;;;;;;6.97;2.83;;;;;;;;;;5114493;28;20024;-39
2022/06/21 06:06:44;;;;;;;6.57;3.33;;;;;;;;;;5114237;28;20027;-40
2022/06/21 06:09:22;;;;;;;9.57;3.28;;;;;;;;;;5114169;28;20476;-60
2022/06/21 06:12:03;;;;;;;8.60;2.78;;;;;;;;;;5114134;28;20027;-40
2022/06/21 06:14:45;;;;;;;14.18;2.60;;;;;;;;;;5114013;28;20112;-40
2022/06/21 06:17:39;;;;;;;3.88;3.00;;;;;;;;;;5113676;28;20083;-39
2022/06/21 06:20:17;;;;;;;5.68;2.20;;;;;;;;;;5114243;28;20062;-38
2022/06/21 06:23:14;;;;;;;10.20;3.00;;;;;;;;;;5113769;28;20028;-42
2022/06/21 06:25:54;;;;;;;5.50;3.13;;;;;;;;;;5114148;28;20039;-38
2022/06/21 06:28:23;;;;;;;4.68;2.97;;;;;;;;;;5114060;28;20095;-53
2022/06/21 06:31:06;;;;;;;8.63;2.60;;;;;;;;;;5113766;28;20441;-39
2022/06/21 06:33:40;;;;;;;4.03;2.25;;;;;;;;;;5113971;28;20402;-42
2022/06/21 06:36:16;;;;;;;5.45;2.00;;;;;;;;;;5113736;28;20035;-41
2022/06/21 06:38:42;;;;;;;5.88;2.90;;;;;;;;;;5113950;28;20024;-51
2022/06/21 06:41:13;;;;;;;18.20;3.35;;;;;;;;;;5112277;28;20020;-51
2022/06/21 06:43:53;;;;;;;19.20;3.55;;;;;;;;;;5113693;28;20077;-54
2022/06/21 06:46:43;;;;;;;7.07;1.65;;;;;;;;;;5113711;28;20024;-52
2022/06/21 06:49:11;;;;;;;17.25;2.65;;;;;;;;;;5113434;28;20028;-54
2022/06/21 06:51:49;;;;;;;53.47;3.60;;;;;;;;;;5113683;28;20023;-54
2022/06/21 06:54:24;;;;;;;45.80;3.40;;;;;;;;;;5113640;28;20023;-42
2022/06/21 06:56:59;;;;;;;17.38;2.75;;;;;;;;;;5113226;28;20280;-38
2022/06/21 06:59:25;;;;;;;35.08;4.03;;;;;;;;;;5113627;28;20079;-50
2022/06/21 07:02:03;;;;;;;11.95;3.13;;;;;;;;;;5113485;28;20024;-46
2022/06/21 07:04:35;;;;;;;17.52;2.10;;;;;;;;;;5113646;28;20023;-40
2022/06/21 07:07:09;;;;;;;25.30;4.18;;;;;;;;;;5113446;28;20019;-38
2022/06/21 07:09:41;;;;;;;10.48;2.20;;;;;;;;;;5112846;28;20447;-43
2022/06/21 07:12:15;;;;;;;15.98;2.80;;;;;;;;;;5113324;28;20027;-40
2022/06/21 07:14:43;;;;;;;8.90;2.75;;;;;;;;;;5113225;28;20031;-45
2022/06/21 07:17:38;;;;;;;4.80;1.88;;;;;;;;;;5112834;28;20043;-44
2022/06/21 07:20:13;;;;;;;17.15;2.05;;;;;;;;;;5113217;28;20425;-59
2022/06/21 07:22:38;;;;;;;37.05;3.80;;;;;;;;;;5113254;28;20020;-49
2022/06/21 07:25:21;;;;;;;18.77;2.17;;;;;;;;;;5113180;28;20497;-56
2022/06/21 07:27:52;;;;;;;8.95;2.00;;;;;;;;;;5112919;28;20102;-41
2022/06/21 07:30:21;;;;;;;8.70;2.60;;;;;;;;;;5112851;28;20051;-48
2022/06/21 07:32:51;;;;;;;9.02;2.47;;;;;;;;;;5112957;28;20024;-58
2022/06/21 07:35:24;;;;;;;5.93;2.72;;;;;;;;;;5112865;28;20038;-63
2022/06/21 07:37:54;;;;;;;5.97;2.58;;;;;;;;;;5112830;28;20106;-43
2022/06/21 07:40:27;;;;;;;4.53;1.92;;;;;;;;;;5113052;28;20115;-47
2022/06/21 07:43:01;;;;;;;7.47;2.05;;;;;;;;;;5112819;28;20441;-47
2022/06/21 07:45:48;;;;;;;13.23;1.67;;;;;;;;;;5112776;28;20028;-64
2022/06/21 07:48:13;;;;;;;6.20;2.00;;;;;;;;;;5112458;28;20103;-65
2022/06/21 07:50:44;;;;;;;11.27;2.53;;;;;;;;;;5110568;28;20055;-45
2022/06/21 07:53:27;;;;;;;5.30;1.98;;;;;;;;;;5109345;28;20039;-45
2022/06/21 07:56:02;;;;;;;10.00;2.10;;;;;;;;;;5111250;28;20031;-65
2022/06/21 07:58:37;;;;;;;6.72;2.17;;;;;;;;;;5111296;28;20118;-49
2022/06/21 08:06:55;;;;;;;5.15;2.50;;;;;;;;;;5110637;28;20030;-65
2022/06/21 08:09:30;;;;;;;4.78;2.17;;;;;;;;;;5111109;28;20019;-46
2022/06/21 08:12:00;;;;;;;6.28;2.47;;;;;;;;;;5111152;28;20104;-42
2022/06/21 08:14:28;;;;;;;4.68;1.92;;;;;;;;;;5111070;28;20153;-47
2022/06/21 08:17:04;;;;;;;8.95;2.10;;;;;;;;;;5110537;28;20055;-53
2022/06/21 08:19:50;;;;;;;9.77;2.83;;;;;;;;;;5112367;28;20043;-38
2022/06/21 08:22:24;;;;;;;9.75;2.55;;;;;;;;;;5114924;28;20032;-49
2022/06/21 08:25:35;;;;;;;21.42;4.65;;;;;;;;;;5114574;28;20026;-38
2022/06/21 08:28:09;;;;;;;12.10;3.13;;;;;;;;;;5098527;28;20380;-54
2022/06/21 08:30:54;;;;;;;11.20;3.03;;;;;;;;;;5114774;28;20051;-53
2022/06/21 08:33:27;;;;;;;17.08;3.42;;;;;;;;;;5114325;28;20028;-40
2022/06/21 08:35:59;;;;;;;24.20;3.63;;;;;;;;;;5114160;28;20028;-49
2022/06/21 08:38:36;;;;;;;18.08;3.75;;;;;;;;;;5114524;28;20032;-56
2022/06/21 08:44:46;;;;;;;9.35;3.40;;;;;;;;;;5114178;28;20172;-57
2022/06/21 08:47:40;;;;;;;12.23;4.78;;;;;;;;;;5110879;28;20330;-51
2022/06/21 08:50:34;;;;;;;8.57;3.00;;;;;;;;;;5114277;28;20027;-39
2022/06/21 08:53:02;;;;;;;9.50;4.18;;;;;;;;;;5114255;28;20375;-40
2022/06/21 08:55:41;;;;;;;11.40;3.77;;;;;;;;;;5114141;28;20023;-59
2022/06/21 08:58:30;;;;;;;13.00;3.42;;;;;;;;;;5114280;28;20051;-41
2022/06/21 09:01:03;;;;;;;13.52;3.63;;;;;;;;;;5113229;28;20631;-56
2022/06/21 09:03:47;;;;;;;16.73;3.88;;;;;;;;;;5113944;28;20036;-49
2022/06/21 09:06:56;;;;;;;15.65;3.15;;;;;;;;;;5114030;28;20045;-54
2022/06/21 09:09:52;;;;;;;8.13;2.72;;;;;;;;;;5110289;28;20067;-56
2022/06/21 09:12:34;;;;;;;6.55;3.10;;;;;;;;;;5113590;28;20660;-65
2022/06/21 09:15:11;;;;;;;7.82;2.80;;;;;;;;;;5113526;28;20498;-44
2022/06/21 09:17:49;;;;;;;13.15;3.70;;;;;;;;;;5113361;27;20047;-54
2022/06/21 09:20:45;;;;;;;24.15;4.13;;;;;;;;;;5113861;28;20031;-54
2022/06/21 09:23:47;;;;;;;15.95;2.72;;;;;;;;;;5113743;28;20092;-53
2022/06/21 09:26:22;;;;;;;8.88;2.65;;;;;;;;;;5113174;28;20027;-46
2022/06/21 09:29:26;;;;;;;9.00;3.50;;;;;;;;;;5113391;28;20475;-44
2022/06/21 09:32:02;;;;;;;16.10;3.33;;;;;;;;;;5110842;28;20055;-59
2022/06/21 09:34:28;;;;;;;7.72;3.03;;;;;;;;;;5113606;28;20031;-42
2022/06/21 09:37:08;;;;;;;15.53;3.13;;;;;;;;;;5112625;28;20034;-61
2022/06/21 09:39:48;;;;;;;8.30;2.25;;;;;;;;;;5112972;28;20490;-42
2022/06/21 09:42:29;;;;;;;14.55;2.50;;;;;;;;;;5112347;28;20031;-56
2022/06/21 09:45:21;;;;;;;19.25;2.60;;;;;;;;;;5113197;28;20054;-49
2022/06/21 09:48:11;;;;;;;20.63;4.47;;;;;;;;;;5112824;28;20097;-51
2022/06/21 09:50:57;;;;;;;7.45;2.72;;;;;;;;;;5112715;28;20118;-45
2022/06/21 09:53:34;;;;;;;18.58;3.00;;;;;;;;;;5112586;28;20069;-64
2022/06/21 09:56:24;;;;;;;9.80;2.15;;;;;;;;;;5112448;28;20721;-51
2022/06/21 09:59:06;;;;;;;7.13;2.17;;;;;;;;;;5112630;28;20074;-50
2022/06/21 10:01:49;;;;;;;6.65;2.17;;;;;;;;;;5112757;28;20027;-43
2022/06/21 10:04:21;;;;;;;5.13;1.88;;;;;;;;;;5114339;28;20028;-37
2022/06/21 10:06:59;;;;;;;9.60;2.08;;;;;;;;;;5095760;28;20054;-47
2022/06/21 10:09:33;;;;;;;5.50;1.70;;;;;;;;;;5114305;28;20030;-51
2022/06/21 10:12:19;;;;;;;8.98;2.00;;;;;;;;;;5113884;28;20058;-43
2022/06/21 10:14:53;;;;;;;21.00;3.40;;;;;;;;;;5113596;28;20490;-40
2022/06/21 10:17:56;;;;;;;15.20;2.33;;;;;;;;;;5112988;28;20377;-37
2022/06/21 10:20:49;;;;;;;16.33;2.15;;;;;;;;;;5113195;28;20023;-52
2022/06/21 10:23:49;;;;;;;15.50;1.80;;;;;;;;;;5113791;28;20024;-36
2022/06/21 10:26:33;;;;;;;15.85;1.83;;;;;;;;;;5113598;28;20039;-57
2022/06/21 10:29:38;;;;;;;5.05;1.85;;;;;;;;;;5113605;28;20499;-37
2022/06/21 10:32:54;;;;;;;12.48;2.53;;;;;;;;;;5113449;28;20433;-38
2022/06/21 10:35:34;;;;;;;8.45;1.90;;;;;;;;;;5070140;28;20039;-65
2022/06/21 10:38:11;;;;;;;20.65;2.00;;;;;;;;;;5113743;28;20077;-59
2022/06/21 10:41:04;;;;;;;8.15;2.20;;;;;;;;;;5113710;28;20031;-58
2022/06/21 10:43:38;;;;;;;3.67;1.48;;;;;;;;;;5112513;28;20023;-37
2022/06/21 10:46:38;;;;;;;6.00;1.73;;;;;;;;;;5113567;28;20031;-37
2022/06/21 10:49:39;;;;;;;19.42;2.95;;;;;;;;;;5113116;28;20474;-38
2022/06/21 10:52:28;;;;;;;5.38;1.75;;;;;;;;;;5110919;28;20471;-38
2022/06/21 10:55:05;;;;;;;11.77;2.27;;;;;;;;;;5112121;28;20020;-52
2022/06/21 10:57:33;;;;;;;5.60;2.20;;;;;;;;;;5112710;28;20088;-38
2022/06/21 11:02:54;;;;;;;10.38;3.47;;;;;;;;;;5111994;28;20043;-49
2022/06/21 11:05:32;;;;;;;7.95;2.95;;;;;;;;;;5110555;28;20020;-40
2022/06/21 11:08:25;;;;;;;12.00;3.60;;;;;;;;;;5113120;28;20097;-58
2022/06/21 11:10:54;;;;;;;12.20;3.67;;;;;;;;;;5112918;28;20028;-63
2022/06/21 11:13:22;;;;;;;9.43;3.38;;;;;;;;;;5113153;28;20024;-38
2022/06/21 11:16:02;;;;;;;12.77;4.13;;;;;;;;;;5112844;28;20035;-40
2022/06/21 11:19:04;;;;;;;15.10;4.53;;;;;;;;;;5112427;28;20047;-46
2022/06/21 11:21:41;;;;;;;10.75;3.20;;;;;;;;;;5110597;28;20128;-46
2022/06/21 11:24:36;;;;;;;21.70;5.95;;;;;;;;;;5112558;28;20072;-55
2022/06/21 11:27:10;;;;;;;13.13;3.72;;;;;;;;;;5094097;28;20031;-38
2022/06/21 11:30:03;;;;;;;24.58;5.00;;;;;;;;;;5110449;28;20031;-47
2022/06/21 11:32:40;;;;;;;13.38;4.32;;;;;;;;;;5109210;28;20027;-54
2022/06/21 11:35:13;;;;;;;6.32;2.50;;;;;;;;;;5111864;28;20116;-60
2022/06/21 11:37:57;;;;;;;17.13;3.50;;;;;;;;;;5111826;28;20052;-39
2022/06/21 11:40:29;;;;;;;7.85;4.72;;;;;;;;;;5111263;28;20040;-44
2022/06/21 11:42:57;;;;;;;18.20;7.00;;;;;;;;;;5111362;28;20027;-55
2022/06/21 11:45:28;;;;;;;12.10;2.45;;;;;;;;;;5111212;28;20040;-52
2022/06/21 11:48:25;;;;;;;20.45;2.95;;;;;;;;;;5111271;28;20034;-38
2022/06/21 11:51:09;;;;;;;20.23;3.92;;;;;;;;;;5110962;28;20779;-39
2022/06/21 11:53:56;;;;;;;12.82;3.75;;;;;;;;;;5111067;28;20031;-38
2022/06/21 11:56:37;;;;;;;8.20;2.03;;;;;;;;;;5115097;28;20136;-49
2022/06/21 11:59:46;;;;;;;19.75;4.60;;;;;;;;;;5114552;28;20491;-40
2022/06/21 12:02:34;;;;;;;12.07;2.00;;;;;;;;;;5033372;28;20052;-41
2022/06/21 12:05:11;;;;;;;19.45;2.25;;;;;;;;;;5041570;28;20029;-37
2022/06/21 12:07:49;;;;;;;10.40;2.05;;;;;;;;;;5091408;28;20043;-58
2022/06/21 12:10:25;;;;;;;19.08;2.88;;;;;;;;;;5114462;28;20057;-49
2022/06/21 12:13:04;;;;;;;8.38;2.47;;;;;;;;;;5114564;28;20050;-46
2022/06/21 12:16:02;;;;;;;4.18;1.80;;;;;;;;;;5114547;28;20051;-49
2022/06/21 12:18:33;;;;;;;6.60;1.90;;;;;;;;;;5114323;28;20055;-51
2022/06/21 12:21:14;;;;;;;16.67;3.22;;;;;;;;;;5114747;28;20023;-45
2022/06/21 12:23:46;;;;;;;6.57;2.45;;;;;;;;;;5115757;28;20038;-51
2022/06/21 12:26:16;;;;;;;9.55;2.47;;;;;;;;;;5115779;28;20023;-52
2022/06/21 12:28:42;;;;;;;5.82;2.20;;;;;;;;;;5116193;28;20038;-59
2022/06/21 12:31:30;;;;;;;6.95;2.55;;;;;;;;;;5116035;28;20028;-60
2022/06/21 12:34:36;;;;;;;5.72;1.92;;;;;;;;;;5115741;28;20027;-54
2022/06/21 12:37:08;;;;;;;7.43;2.20;;;;;;;;;;5115832;28;20031;-51
2022/06/21 12:40:13;;;;;;;13.35;2.40;;;;;;;;;;5115752;28;20027;-46
2022/06/21 12:43:13;;;;;;;7.00;2.17;;;;;;;;;;5062232;28;20032;-54
2022/06/21 12:45:58;;;;;;;3.15;1.45;;;;;;;;;;5094957;28;20028;-42
2022/06/21 12:48:48;;;;;;;4.53;1.73;;;;;;;;;;5095628;28;20024;-37
2022/06/21 12:51:34;;;;;;;15.75;2.53;;;;;;;;;;5095210;28;20028;-41
2022/06/21 12:54:11;;;;;;;3.28;1.60;;;;;;;;;;5095142;28;20028;-40
2022/06/21 12:56:58;;;;;;;8.85;2.80;;;;;;;;;;5094929;28;20028;-39
2022/06/21 12:59:41;;;;;;;6.53;2.40;;;;;;;;;;5095412;28;20103;-37
2022/06/21 13:02:28;;;;;;;7.50;2.38;;;;;;;;;;5094962;28;20028;-41
2022/06/21 13:05:00;;;;;;;4.93;2.35;;;;;;;;;;5095002;28;20044;-43
2022/06/21 13:08:02;;;;;;;7.63;2.95;;;;;;;;;;5094136;28;20020;-35
2022/06/21 13:10:37;;;;;;;3.15;1.50;;;;;;;;;;5095205;28;20047;-50
2022/06/21 13:13:38;;;;;;;1.75;1.40;;;;;;;;;;5094961;28;20024;-42
2022/06/21 13:16:13;;;;;;;7.65;1.95;;;;;;;;;;5094108;28;20568;-51
2022/06/21 13:19:19;;;;;;;5.03;1.50;;;;;;;;;;5094391;28;20047;-36
2022/06/21 13:21:44;;;;;;;3.25;1.45;;;;;;;;;;5094928;28;20047;-39
2022/06/21 13:24:36;;;;;;;9.18;3.55;;;;;;;;;;5110159;28;20020;-40
2022/06/21 13:27:04;;;;;;;3.80;1.40;;;;;;;;;;5115031;28;20026;-50
2022/06/21 13:29:44;;;;;;;3.95;1.40;;;;;;;;;;5115170;28;20028;-62
2022/06/21 13:32:47;;;;;;;4.25;1.83;;;;;;;;;;5115005;28;20075;-53
2022/06/21 13:35:42;;;;;;;3.05;1.58;;;;;;;;;;5095489;28;20032;-62
2022/06/21 13:38:31;;;;;;;6.43;2.70;;;;;;;;;;5112736;28;20088;-65
2022/06/21 13:42:37;;;;;;;2.22;1.73;;;;;;;;;;5114910;28;20104;-47
2022/06/21 13:44:08;;;;;;;5.20;2.40;;;;;;;;;;5114236;28;20031;-66
2022/06/21 13:46:39;;;;;;;3.55;1.90;;;;;;;;;;5112606;28;20028;-63
2022/06/21 13:49:25;;;;;;;5.30;1.98;;;;;;;;;;5114723;28;20028;-58
2022/06/21 13:52:06;;;;;;;8.32;2.38;;;;;;;;;;5114570;28;20027;-64
2022/06/21 13:54:41;;;;;;;10.63;3.92;;;;;;;;;;5114419;28;20088;-65
2022/06/21 13:57:41;;;;;;;4.45;2.17;;;;;;;;;;5114673;28;20032;-65
2022/06/21 14:00:07;;;;;;;18.42;2.25;;;;;;;;;;5076054;28;20042;-52
2022/06/21 14:02:55;;;;;;;5.47;1.70;;;;;;;;;;5114420;28;20039;-60
2022/06/21 14:05:31;;;;;;;1.90;1.20;;;;;;;;;;5113913;28;20543;-59
2022/06/21 14:08:31;;;;;;;5.53;1.63;;;;;;;;;;5111943;28;20110;-62
2022/06/21 14:11:12;;;;;;;11.18;3.40;;;;;;;;;;5114423;28;20137;-64
2022/06/21 14:13:51;;;;;;;2.85;1.63;;;;;;;;;;5114507;28;20027;-65
2022/06/21 14:16:38;;;;;;;3.03;1.30;;;;;;;;;;5114025;28;20062;-70
2022/06/21 14:19:50;;;;;;;2.47;1.10;;;;;;;;;;5113676;28;20495;-65
2022/06/21 14:22:26;;;;;;;4.03;1.30;;;;;;;;;;5094137;28;20031;-63
2022/06/21 14:24:57;;;;;;;12.65;2.22;;;;;;;;;;5114191;28;20413;-64
2022/06/21 14:27:47;;;;;;;4.25;1.48;;;;;;;;;;5114075;27;20042;-60
2022/06/21 14:30:18;;;;;;;3.17;1.30;;;;;;;;;;5113982;28;20038;-56
2022/06/21 14:32:54;;;;;;;6.20;1.30;;;;;;;;;;5113945;28;20052;-66
2022/06/21 14:35:40;;;;;;;13.85;3.53;;;;;;;;;;5113957;28;20382;-65
2022/06/21 14:38:15;;;;;;;5.53;1.90;;;;;;;;;;5113696;28;20072;-65
2022/06/21 14:40:44;;;;;;;2.92;1.70;;;;;;;;;;5113571;28;20031;-51
2022/06/21 14:43:44;;;;;;;5.47;1.33;;;;;;;;;;5113616;28;20022;-60
2022/06/21 14:46:35;;;;;;;7.10;1.25;;;;;;;;;;5089462;28;20036;-38
2022/06/21 14:49:37;;;;;;;5.03;1.67;;;;;;;;;;5112410;28;20372;-59
2022/06/21 14:52:24;;;;;;;5.45;1.42;;;;;;;;;;5111713;28;20035;-41
2022/06/21 14:55:35;;;;;;;1.65;1.20;;;;;;;;;;5111196;28;20479;-45
2022/06/21 14:58:12;;;;;;;3.05;1.02;;;;;;;;;;5087488;27;20043;-63
2022/06/21 15:00:48;;;;;;;5.57;1.10;;;;;;;;;;5111628;28;20479;-51
2022/06/21 15:03:30;;;;;;;1.77;0.90;;;;;;;;;;5112110;28;20039;-42
2022/06/21 15:06:31;;;;;;;4.40;1.08;;;;;;;;;;5111840;28;20365;-43
2022/06/21 15:09:21;;;;;;;3.72;1.15;;;;;;;;;;5111908;28;20035;-36
2022/06/21 15:12:00;;;;;;;9.52;1.20;;;;;;;;;;5111372;28;20024;-53
2022/06/21 15:14:41;;;;;;;1.85;0.98;;;;;;;;;;5111793;28;20035;-56
2022/06/21 15:17:13;;;;;;;1.05;0.85;;;;;;;;;;5111067;28;20134;-49
2022/06/21 15:19:56;;;;;;;4.38;1.23;;;;;;;;;;5111708;28;20038;-57
2022/06/21 15:22:50;;;;;;;8.13;2.20;;;;;;;;;;5111601;28;20034;-37
2022/06/21 15:25:23;;;;;;;2.10;1.02;;;;;;;;;;5111391;28;20031;-56
2022/06/21 15:28:07;;;;;;;2.83;1.52;;;;;;;;;;5111199;28;20494;-35
2022/06/21 15:30:49;;;;;;;3.30;1.52;;;;;;;;;;5111090;28;20118;-37
2022/06/21 15:33:35;;;;;;;3.70;1.52;;;;;;;;;;5111198;28;20027;-38
2022/06/21 15:36:14;;;;;;;2.72;0.93;;;;;;;;;;5111585;28;20032;-65
2022/06/21 15:39:13;;;;;;;1.50;0.90;;;;;;;;;;5109921;28;20020;-58
2022/06/21 15:41:41;;;;;;;2.05;1.10;;;;;;;;;;5111433;28;20371;-43
2022/06/21 15:44:22;;;;;;;4.28;1.45;;;;;;;;;;5111295;28;20028;-52
2022/06/21 15:50:12;;;;;;;4.32;1.10;;;;;;;;;;5110589;28;20596;-62
2022/06/21 15:52:34;;;;;;;14.80;2.33;;;;;;;;;;5111466;28;20514;-62
2022/06/21 15:55:13;;;;;;;1.33;0.80;;;;;;;;;;5110981;28;20046;-36
2022/06/21 15:57:43;;;;;;;1.77;0.90;;;;;;;;;;5111037;28;20406;-49
2022/06/21 16:00:34;;;;;;;2.67;0.70;;;;;;;;;;5111192;28;20035;-61
2022/06/21 16:03:11;;;;;;;0.98;0.90;;;;;;;;;;5111069;28;20028;-62